Time;durP1;ratioP1;P1;durP2;ratioP2;P2;SDS_P1;SDS_P2;PMS_P1;PMS_P2;Temp;Humidity;BMP_temperature;BMP_pressure;BME280_temperature;BME280_humidity;BME280_pressure;Samples;Min_cycle;Max_cycle;Signal;HPM_P1;HPM_P2
2022/11/02 00:01:17;;;;;;;16.23;9.30;;;;;;;7.14;100.00;97327.69;5043488;28;20110;-68
2022/11/02 00:03:42;;;;;;;12.73;8.93;;;;;;;7.20;100.00;97337.28;5042812;28;20041;-67
2022/11/02 00:06:08;;;;;;;13.57;8.85;;;;;;;7.34;100.00;97331.56;5035417;28;20044;-68
2022/11/02 00:08:33;;;;;;;13.30;9.18;;;;;;;7.35;100.00;97333.19;5042808;28;20061;-69
2022/11/02 00:10:59;;;;;;;16.38;10.85;;;;;;;7.38;100.00;97332.53;5044346;28;20049;-67
2022/11/02 00:13:24;;;;;;;13.05;8.93;;;;;;;7.44;100.00;97335.84;5038522;28;20107;-67
2022/11/02 00:15:49;;;;;;;13.82;7.90;;;;;;;7.47;100.00;97336.00;5042322;28;20059;-69
2022/11/02 00:18:15;;;;;;;11.77;8.50;;;;;;;7.52;100.00;97337.72;5036839;28;20056;-71
2022/11/02 00:20:42;;;;;;;13.38;7.95;;;;;;;7.54;100.00;97335.44;5052186;28;20547;-71
2022/11/02 00:23:09;;;;;;;17.13;8.43;;;;;;;7.47;100.00;97341.44;5024824;28;20048;-68
2022/11/02 00:25:40;;;;;;;13.65;8.95;;;;;;;7.58;100.00;97341.84;5055070;28;20068;-67
2022/11/02 00:28:06;;;;;;;14.80;9.30;;;;;;;7.57;100.00;97345.69;5055409;28;20140;-68
2022/11/02 00:30:32;;;;;;;14.80;7.75;;;;;;;7.58;100.00;97341.84;5043095;28;20053;-66
2022/11/02 00:32:57;;;;;;;14.55;7.93;;;;;;;7.43;100.00;97358.78;5042361;28;20679;-67
2022/11/02 00:35:22;;;;;;;12.07;7.93;;;;;;;7.25;100.00;97345.25;5029201;28;20129;-68
2022/11/02 00:37:48;;;;;;;15.73;8.00;;;;;;;6.97;100.00;97346.81;5030926;28;20056;-67
2022/11/02 00:40:13;;;;;;;15.98;7.50;;;;;;;7.04;100.00;97358.81;5037930;28;20036;-69
2022/11/02 00:42:39;;;;;;;13.35;7.53;;;;;;;7.01;100.00;97358.69;5043214;28;20144;-69
2022/11/02 00:45:06;;;;;;;14.02;8.18;;;;;;;6.93;100.00;97365.75;5039102;28;20064;-70
2022/11/02 00:47:32;;;;;;;14.38;7.35;;;;;;;6.84;100.00;97373.16;5041390;28;20044;-67
2022/11/02 00:49:57;;;;;;;14.90;8.85;;;;;;;6.76;100.00;97366.59;5046541;28;20072;-69
2022/11/02 00:52:23;;;;;;;12.80;8.50;;;;;;;6.68;100.00;97381.03;5050574;28;20668;-69
2022/11/02 00:54:48;;;;;;;16.05;7.95;;;;;;;6.62;100.00;97379.63;5057217;28;20043;-69
2022/11/02 00:57:14;;;;;;;10.52;8.20;;;;;;;6.68;100.00;97384.56;5039220;28;20128;-68
2022/11/02 00:59:39;;;;;;;14.63;8.25;;;;;;;6.77;100.00;97378.28;5044559;28;20090;-69
2022/11/02 01:02:04;;;;;;;10.55;7.43;;;;;;;6.68;100.00;97387.28;5044361;28;20039;-70
2022/11/02 01:04:30;;;;;;;13.10;8.20;;;;;;;6.68;100.00;97384.56;5016172;28;20049;-69
2022/11/02 01:06:55;;;;;;;12.75;8.63;;;;;;;6.68;100.00;97386.47;5039166;28;20045;-70
2022/11/02 01:09:21;;;;;;;11.75;7.47;;;;;;;6.87;100.00;97375.22;5037062;28;20048;-67
2022/11/02 01:11:46;;;;;;;11.07;7.05;;;;;;;7.02;100.00;97382.88;5043645;28;20047;-68
2022/11/02 01:14:11;;;;;;;14.35;7.28;;;;;;;7.18;100.00;97385.03;5036894;28;20052;-71
2022/11/02 01:16:40;;;;;;;10.32;6.85;;;;;;;7.31;100.00;97380.47;5042469;28;20059;-69
2022/11/02 01:19:06;;;;;;;10.52;6.90;;;;;;;7.47;100.00;97381.50;5039445;28;20040;-70
2022/11/02 01:21:32;;;;;;;13.05;7.00;;;;;;;7.61;100.00;97390.25;5062523;28;20052;-71
2022/11/02 01:23:57;;;;;;;13.05;7.10;;;;;;;7.59;100.00;97389.00;5062906;28;20044;-70
2022/11/02 01:26:23;;;;;;;12.57;6.75;;;;;;;7.45;100.00;97386.50;5057827;28;20048;-71
2022/11/02 01:28:48;;;;;;;9.60;6.30;;;;;;;7.49;100.00;97378.47;5048018;28;20382;-70
2022/11/02 01:31:13;;;;;;;14.07;6.70;;;;;;;7.49;100.00;97376.56;5027897;28;20510;-71
2022/11/02 01:33:45;;;;;;;9.20;6.90;;;;;;;7.35;100.00;97374.06;5042761;28;20037;-68
2022/11/02 01:36:13;;;;;;;9.82;6.88;;;;;;;7.23;100.00;97374.75;5035463;28;20525;-71
2022/11/02 01:38:39;;;;;;;11.73;7.10;;;;;;;7.49;100.00;97376.56;5036025;28;20402;-71
2022/11/02 01:41:04;;;;;;;11.40;7.32;;;;;;;7.67;100.00;97374.53;5038142;28;20044;-72
2022/11/02 01:43:32;;;;;;;8.93;5.97;;;;;;;7.85;100.00;97370.53;5038402;28;20084;-71
2022/11/02 01:46:11;;;;;;;9.93;6.47;;;;;;;8.11;100.00;97371.47;5023978;28;20049;-71
2022/11/02 01:48:43;;;;;;;9.90;5.43;;;;;;;8.17;100.00;97365.44;5043463;28;20051;-70
2022/11/02 01:51:20;;;;;;;9.57;6.05;;;;;;;8.22;100.00;97361.72;5039438;28;20052;-71
2022/11/02 01:53:48;;;;;;;8.27;5.63;;;;;;;8.31;100.00;97364.38;5042332;28;20044;-72
2022/11/02 01:56:16;;;;;;;9.30;6.30;;;;;;;8.22;100.00;97353.53;5031573;28;20061;-71
2022/11/02 01:58:45;;;;;;;17.10;5.88;;;;;;;8.25;100.00;97358.34;5042948;28;20037;-69
2022/11/02 02:01:11;;;;;;;13.73;5.73;;;;;;;8.26;100.00;97364.59;5043773;28;20486;-71
2022/11/02 02:03:37;;;;;;;9.57;5.28;;;;;;;8.32;100.00;97360.50;5040606;28;20040;-70
2022/11/02 02:06:10;;;;;;;11.13;5.68;;;;;;;8.36;100.00;97356.00;5037801;28;20056;-71
2022/11/02 02:08:39;;;;;;;12.80;5.72;;;;;;;8.39;100.00;97353.38;5041997;28;20053;-69
2022/11/02 02:11:27;;;;;;;11.98;5.85;;;;;;;8.40;100.00;97352.25;5034139;28;20437;-72
2022/11/02 02:13:59;;;;;;;8.82;5.57;;;;;;;8.39;100.00;97355.28;5041346;28;20048;-71
2022/11/02 02:16:34;;;;;;;13.02;5.90;;;;;;;8.43;100.00;97345.34;5036397;28;20076;-71
2022/11/02 02:19:09;;;;;;;14.85;5.90;;;;;;;8.44;100.00;97338.75;5043785;28;20041;-71
2022/11/02 02:21:43;;;;;;;10.85;5.47;;;;;;;8.39;100.00;97347.94;5041986;28;20048;-71
2022/11/02 02:24:27;;;;;;;13.27;5.68;;;;;;;8.37;100.00;97350.19;5035246;28;20073;-71
2022/11/02 02:27:08;;;;;;;12.80;6.20;;;;;;;8.23;100.00;97350.47;5040606;28;20041;-71
2022/11/02 02:29:50;;;;;;;9.25;5.97;;;;;;;8.11;100.00;97358.59;5040433;28;20055;-70
2022/11/02 02:32:19;;;;;;;9.60;5.80;;;;;;;8.07;100.00;97360.41;5037398;28;20091;-71
2022/11/02 02:34:56;;;;;;;10.93;5.95;;;;;;;8.19;100.00;97356.94;5041623;28;20399;-72
2022/11/02 02:37:42;;;;;;;13.68;5.88;;;;;;;8.34;100.00;97366.44;5040442;28;20524;-71
2022/11/02 02:40:23;;;;;;;10.32;5.75;;;;;;;8.47;100.00;97364.59;5034615;28;20124;-71
2022/11/02 02:43:07;;;;;;;7.43;5.38;;;;;;;8.66;100.00;97353.13;5041978;28;20102;-72
2022/11/02 02:45:37;;;;;;;10.10;5.80;;;;;;;8.75;100.00;97351.91;5038707;28;20041;-71
2022/11/02 02:48:06;;;;;;;;;;;;;;;8.93;100.00;97355.25;5040630;28;20136;-72
2022/11/02 02:50:39;;;;;;;9.63;5.40;;;;;;;8.94;100.00;97348.63;5041712;28;20392;-70
2022/11/02 02:53:06;;;;;;;12.07;6.05;;;;;;;8.91;100.00;97348.50;5032829;28;20102;-72
2022/11/02 02:55:37;;;;;;;11.50;6.35;;;;;;;8.97;100.00;97367.09;5041051;28;20041;-71
2022/11/02 02:58:05;;;;;;;8.85;5.22;;;;;;;8.86;100.00;97362.38;5048512;28;20520;-72
2022/11/02 03:00:35;;;;;;;10.98;5.90;;;;;;;8.76;100.00;97361.69;5049646;28;20060;-71
2022/11/02 03:03:03;;;;;;;12.30;6.53;;;;;;;8.65;100.00;97363.28;5042238;28;20040;-71
2022/11/02 03:05:32;;;;;;;18.52;8.43;;;;;;;8.60;100.00;97361.53;5036927;28;20045;-70
2022/11/02 03:08:04;;;;;;;13.05;8.10;;;;;;;8.58;100.00;97355.63;5040275;28;20806;-71
2022/11/02 03:10:45;;;;;;;19.33;8.23;;;;;;;8.55;100.00;97360.97;5034949;28;20041;-71
2022/11/02 03:13:44;;;;;;;24.52;9.27;;;;;;;8.55;100.00;97352.75;5034851;28;20037;-70
2022/11/02 03:16:24;;;;;;;17.45;8.95;;;;;;;8.53;100.00;97358.56;5036469;28;20071;-71
2022/11/02 03:19:04;;;;;;;16.40;7.93;;;;;;;8.52;100.00;97367.13;5041373;28;20046;-71
2022/11/02 03:21:42;;;;;;;11.63;7.63;;;;;;;8.56;100.00;97357.91;5034494;28;20052;-70
2022/11/02 03:24:14;;;;;;;14.10;8.05;;;;;;;8.66;100.00;97356.69;5036740;28;20510;-71
2022/11/02 03:26:53;;;;;;;13.02;6.57;;;;;;;8.66;100.00;97359.41;5038436;28;20045;-71
2022/11/02 03:29:27;;;;;;;8.68;5.63;;;;;;;8.63;100.00;97354.63;5036273;28;20072;-71
2022/11/02 03:32:06;;;;;;;15.63;6.55;;;;;;;8.50;100.00;97351.06;5038046;28;20068;-71
2022/11/02 03:34:39;;;;;;;10.98;5.90;;;;;;;8.46;100.00;97354.78;5040369;28;20091;-72
2022/11/02 03:37:22;;;;;;;11.65;6.22;;;;;;;8.40;100.00;97354.97;5032435;28;20065;-71
2022/11/02 03:40:21;;;;;;;12.25;6.78;;;;;;;8.40;100.00;97357.69;5041560;28;20041;-71
2022/11/02 03:42:49;;;;;;;10.30;6.38;;;;;;;8.45;100.00;97362.19;5020380;28;20049;-71
2022/11/02 03:45:24;;;;;;;16.25;7.07;;;;;;;8.45;100.00;97351.28;5029820;28;20036;-69
2022/11/02 03:47:54;;;;;;;18.48;8.07;;;;;;;8.45;100.00;97354.00;5044262;28;20041;-70
2022/11/02 03:50:22;;;;;;;16.35;8.77;;;;;;;8.52;100.00;97350.72;5036176;28;20048;-72
2022/11/02 03:52:53;;;;;;;18.52;10.60;;;;;;;8.67;100.00;97362.94;5041983;28;20203;-72
2022/11/02 03:55:24;;;;;;;14.13;8.75;;;;;;;8.68;100.00;97354.41;5020406;28;20065;-69
2022/11/02 03:57:51;;;;;;;18.42;10.15;;;;;;;8.80;100.00;97356.34;5026396;28;20056;-70
2022/11/02 04:00:22;;;;;;;19.67;10.38;;;;;;;8.93;100.00;97368.09;5032832;28;20045;-70
2022/11/02 04:02:52;;;;;;;21.75;12.27;;;;;;;8.96;100.00;97362.75;5052648;28;20048;-70
2022/11/02 04:05:17;;;;;;;21.98;11.05;;;;;;;8.91;100.00;97365.72;5060480;28;20041;-73
2022/11/02 04:10:31;;;;;;;17.52;8.40;;;;;;;8.70;100.00;97375.91;5031247;28;20484;-71
2022/11/02 04:15:42;;;;;;;13.32;7.18;;;;;;;8.83;100.00;97369.34;5043853;28;20044;-71
2022/11/02 04:20:52;;;;;;;16.90;9.07;;;;;;;8.93;100.00;97371.63;5064573;28;20044;-71
2022/11/02 04:26:04;;;;;;;23.27;10.32;;;;;;;9.01;100.00;97378.13;5042144;28;20449;-71
2022/11/02 04:28:29;;;;;;;18.45;10.73;;;;;;;9.05;100.00;97376.31;5044393;28;20482;-70
2022/11/02 04:30:57;;;;;;;20.38;11.25;;;;;;;9.09;100.00;97382.72;5053970;28;20052;-69
2022/11/02 04:33:31;;;;;;;26.75;12.95;;;;;;;9.12;100.00;97381.22;5055656;28;20681;-70
2022/11/02 04:36:05;;;;;;;23.63;11.07;;;;;;;9.15;100.00;97381.34;5043521;28;20045;-69
2022/11/02 04:38:40;;;;;;;14.48;9.38;;;;;;;9.26;100.00;97376.22;5041760;28;20103;-69
2022/11/02 04:43:55;;;;;;;19.13;9.55;;;;;;;9.22;100.00;97388.16;5045223;28;20040;-69
2022/11/02 04:46:22;;;;;;;20.77;9.43;;;;;;;9.29;100.00;97397.41;5041583;28;20049;-69
2022/11/02 04:48:48;;;;;;;20.98;10.13;;;;;;;9.25;100.00;97399.22;5038712;28;20379;-70
2022/11/02 04:51:13;;;;;;;16.88;9.30;;;;;;;9.31;100.00;97394.31;5038424;28;20485;-72
2022/11/02 04:53:39;;;;;;;20.42;8.95;;;;;;;9.37;100.00;97399.22;5043743;28;20055;-70
2022/11/02 04:56:05;;;;;;;19.05;9.70;;;;;;;9.37;100.00;97384.75;5040082;28;20128;-71
2022/11/02 04:58:30;;;;;;;21.83;10.88;;;;;;;9.35;100.00;97387.03;5043302;28;20563;-71
2022/11/02 05:00:56;;;;;;;22.35;11.88;;;;;;;9.33;100.00;97389.31;5042034;28;20071;-70
2022/11/02 05:03:21;;;;;;;27.02;12.35;;;;;;;9.31;100.00;97394.31;5039122;28;20215;-70
2022/11/02 05:05:47;;;;;;;24.38;12.38;;;;;;;9.29;100.00;97391.13;5049480;28;20041;-69
2022/11/02 05:08:12;;;;;;;26.15;12.93;;;;;;;9.30;100.00;97396.25;5043381;28;20139;-70
2022/11/02 05:10:37;;;;;;;19.25;11.23;;;;;;;9.34;100.00;97391.69;5042979;28;20745;-70
2022/11/02 05:13:03;;;;;;;21.60;10.95;;;;;;;9.43;100.00;97393.53;5038772;28;20041;-71
2022/11/02 05:15:28;;;;;;;16.85;10.38;;;;;;;9.50;100.00;97389.06;5040883;28;20037;-70
2022/11/02 05:17:54;;;;;;;17.38;10.10;;;;;;;9.58;100.00;97384.66;5043154;28;20796;-71
2022/11/02 05:20:19;;;;;;;18.85;10.73;;;;;;;9.61;100.00;97385.88;5037214;28;20748;-71
2022/11/02 05:22:45;;;;;;;18.75;9.35;;;;;;;9.59;100.00;97390.91;5043343;28;20098;-71
2022/11/02 05:25:10;;;;;;;17.55;9.73;;;;;;;9.60;100.00;97404.25;5038365;28;20044;-71
2022/11/02 05:27:36;;;;;;;13.05;9.10;;;;;;;9.55;100.00;97396.25;5042776;28;20037;-71
2022/11/02 05:30:03;;;;;;;16.70;9.45;;;;;;;9.52;100.00;97396.94;5046956;28;20044;-72
2022/11/02 05:32:29;;;;;;;16.80;9.25;;;;;;;9.56;100.00;97387.72;5027093;28;20045;-71
2022/11/02 05:34:54;;;;;;;18.60;10.40;;;;;;;9.65;100.00;97395.00;5040181;28;20170;-71
2022/11/02 05:37:19;;;;;;;24.02;12.15;;;;;;;9.66;100.00;97396.59;5036891;28;20041;-71
2022/11/02 05:39:45;;;;;;;24.10;11.38;;;;;;;9.64;100.00;97393.41;5042128;28;20101;-71
2022/11/02 05:42:10;;;;;;;18.13;11.85;;;;;;;9.66;100.00;97399.34;5037478;28;20037;-71
2022/11/02 05:44:36;;;;;;;28.30;11.40;;;;;;;9.63;100.00;97400.00;5041376;28;20049;-71
2022/11/02 05:47:02;;;;;;;19.48;11.23;;;;;;;9.70;100.00;97398.28;5039876;28;20041;-71
2022/11/02 05:49:27;;;;;;;17.73;10.73;;;;;;;9.72;100.00;97404.25;5039968;28;20052;-71
2022/11/02 05:51:53;;;;;;;19.00;10.02;;;;;;;9.73;100.00;97402.28;5042423;28;20032;-71
2022/11/02 05:54:19;;;;;;;18.77;10.43;;;;;;;9.72;100.00;97397.94;5035170;28;20513;-71
2022/11/02 05:56:45;;;;;;;16.40;9.90;;;;;;;9.64;100.00;97409.81;5035631;28;20053;-71
2022/11/02 05:59:10;;;;;;;20.63;9.68;;;;;;;9.52;100.00;97413.34;5036953;28;20048;-70
2022/11/02 06:01:36;;;;;;;16.67;10.02;;;;;;;9.54;100.00;97411.88;5040295;28;20049;-72
2022/11/02 06:04:01;;;;;;;17.55;9.80;;;;;;;9.59;100.00;97413.56;5042719;28;20036;-68
2022/11/02 06:06:27;;;;;;;22.52;10.35;;;;;;;9.61;100.00;97418.72;5037980;28;20573;-72
2022/11/02 06:08:52;;;;;;;18.75;10.65;;;;;;;9.51;100.00;97425.44;5042496;28;20060;-71
2022/11/02 06:11:18;;;;;;;21.77;10.95;;;;;;;9.52;100.00;97430.53;5035787;28;20405;-70
2022/11/02 06:13:43;;;;;;;15.88;9.95;;;;;;;9.52;100.00;97430.53;5041745;28;20045;-70
2022/11/02 06:16:11;;;;;;;19.58;11.25;;;;;;;9.52;100.00;97430.53;5037758;28;20471;-71
2022/11/02 06:18:37;;;;;;;19.77;11.68;;;;;;;9.56;100.00;97445.16;5040608;28;20044;-70
2022/11/02 06:21:03;;;;;;;17.67;10.30;;;;;;;9.63;100.00;97446.50;5041129;28;20040;-71
2022/11/02 06:23:29;;;;;;;18.98;10.38;;;;;;;9.71;100.00;97456.56;5040587;28;20071;-70
2022/11/02 06:25:56;;;;;;;16.73;9.30;;;;;;;9.82;100.00;97454.16;5041315;28;20181;-71
2022/11/02 06:28:23;;;;;;;18.60;9.90;;;;;;;9.83;100.00;97451.09;5048281;28;21793;-70
2022/11/02 06:30:49;;;;;;;19.25;10.15;;;;;;;9.85;100.00;97459.75;5050095;28;20059;-69
2022/11/02 06:33:16;;;;;;;26.55;11.23;;;;;;;9.86;100.00;97457.78;5047620;28;20467;-70
2022/11/02 06:35:50;;;;;;;21.40;10.30;;;;;;;9.87;100.00;97459.41;5041453;28;20402;-71
2022/11/02 06:38:17;;;;;;;24.25;10.70;;;;;;;9.87;100.00;97454.72;5036505;28;20482;-70
2022/11/02 06:40:43;;;;;;;22.17;10.30;;;;;;;9.87;100.00;97449.25;5049766;28;20127;-71
2022/11/02 06:43:08;;;;;;;22.27;10.88;;;;;;;9.91;100.00;97457.56;5037706;28;20038;-70
2022/11/02 06:45:34;;;;;;;16.90;10.55;;;;;;;9.92;100.00;97464.63;5040041;28;20387;-70
2022/11/02 06:48:00;;;;;;;17.25;10.07;;;;;;;9.95;100.00;97462.00;5043222;28;20037;-70
2022/11/02 06:50:25;;;;;;;17.17;9.05;;;;;;;10.05;100.00;97465.44;5039989;28;20064;-70
2022/11/02 06:52:51;;;;;;;15.68;8.98;;;;;;;10.19;100.00;97471.34;5042169;28;20106;-69
2022/11/02 06:55:17;;;;;;;13.27;9.10;;;;;;;10.32;100.00;97463.91;5039012;28;20037;-70
2022/11/02 06:57:43;;;;;;;14.77;8.27;;;;;;;10.43;100.00;97475.19;5041520;28;20057;-70
2022/11/02 07:00:16;;;;;;;15.70;8.27;;;;;;;10.57;100.00;97483.81;5037736;28;20049;-70
2022/11/02 07:02:42;;;;;;;16.75;8.20;;;;;;;10.65;100.00;97485.59;5042590;28;20037;-71
2022/11/02 07:05:08;;;;;;;16.08;8.20;;;;;;;10.68;100.00;97484.91;5038074;28;20041;-71
2022/11/02 07:07:33;;;;;;;12.98;7.28;;;;;;;10.72;100.00;97493.22;5040648;28;20484;-70
2022/11/02 07:09:59;;;;;;;11.10;7.85;;;;;;;10.78;100.00;97493.78;5041039;28;20045;-71
2022/11/02 07:12:24;;;;;;;15.77;7.30;;;;;;;10.85;100.00;97496.72;5045169;28;20051;-71
2022/11/02 07:14:49;;;;;;;14.00;8.00;;;;;;;10.93;100.00;97501.25;5062141;28;20056;-71
2022/11/02 07:17:15;;;;;;;14.63;7.65;;;;;;;10.98;100.00;97508.44;5036875;28;20379;-70
2022/11/02 07:19:40;;;;;;;15.82;8.00;;;;;;;10.93;100.00;97514.16;5041312;28;20045;-70
2022/11/02 07:22:06;;;;;;;14.55;7.10;;;;;;;10.88;100.00;97523.44;5036753;28;20491;-69
2022/11/02 07:24:32;;;;;;;17.58;7.40;;;;;;;10.84;100.00;97519.78;5038813;28;20052;-71
2022/11/02 07:26:57;;;;;;;13.60;7.22;;;;;;;10.99;100.00;97519.03;5040811;28;20041;-71
2022/11/02 07:29:23;;;;;;;21.67;14.70;;;;;;;10.74;100.00;97514.81;5037664;28;20510;-70
2022/11/02 07:31:48;;;;;;;18.08;11.75;;;;;;;10.61;100.00;97522.28;5044500;28;20041;-70
2022/11/02 07:34:14;;;;;;;19.67;9.98;;;;;;;10.51;100.00;97524.34;5039897;28;20048;-71
2022/11/02 07:36:39;;;;;;;13.40;8.48;;;;;;;10.66;100.00;97513.78;5043883;28;20557;-71
2022/11/02 07:39:07;;;;;;;12.98;7.43;;;;;;;10.87;100.00;97521.84;5041816;28;20045;-71
2022/11/02 07:41:33;;;;;;;15.73;8.77;;;;;;;11.04;100.00;97523.50;5063525;28;20037;-69
2022/11/02 07:43:59;;;;;;;14.55;7.22;;;;;;;11.21;100.00;97527.84;5058448;28;20033;-69
2022/11/02 07:46:24;;;;;;;13.63;6.75;;;;;;;11.33;100.00;97532.50;5047650;28;20049;-70
2022/11/02 07:48:50;;;;;;;13.07;7.20;;;;;;;11.40;100.00;97529.94;5050067;28;20079;-69
2022/11/02 07:51:15;;;;;;;13.90;6.80;;;;;;;11.55;100.00;97529.16;5041948;28;20568;-70
2022/11/02 07:53:41;;;;;;;15.48;5.93;;;;;;;11.59;100.00;97532.78;5049425;28;20043;-70
2022/11/02 07:56:07;;;;;;;17.08;7.82;;;;;;;11.67;100.00;97529.06;5043407;28;20048;-71
2022/11/02 07:58:33;;;;;;;16.27;8.02;;;;;;;11.74;100.00;97522.16;5048877;28;20548;-70
2022/11/02 08:00:59;;;;;;;18.75;7.50;;;;;;;11.90;100.00;97536.69;5051220;28;20045;-70
2022/11/02 08:03:25;;;;;;;10.30;5.85;;;;;;;12.01;100.00;97532.28;5044917;28;20041;-69
2022/11/02 08:05:52;;;;;;;15.00;5.88;;;;;;;11.96;100.00;97537.25;5048271;28;20049;-68
2022/11/02 08:08:21;;;;;;;18.20;5.05;;;;;;;11.82;100.00;97532.16;5034608;28;20029;-68
2022/11/02 08:10:49;;;;;;;11.73;5.35;;;;;;;11.96;100.00;97540.00;5040928;28;20052;-67
2022/11/02 08:13:18;;;;;;;10.43;4.30;;;;;;;11.93;100.00;97548.94;5039750;28;20555;-66
2022/11/02 08:15:47;;;;;;;12.73;4.27;;;;;;;11.95;100.00;97538.41;5047918;28;20037;-67
2022/11/02 08:18:24;;;;;;;11.43;3.97;;;;;;;12.01;100.00;97546.03;5042076;28;20871;-67
2022/11/02 08:20:53;;;;;;;;;;;;;;;12.07;100.00;97541.03;5049093;28;20075;-68
2022/11/02 08:23:19;;;;;;;9.50;3.33;;;;;;;12.06;100.00;97550.44;5047946;28;19917;-69
2022/11/02 08:25:47;;;;;;;9.63;3.47;;;;;;;11.94;100.00;97547.78;5055188;28;20040;-68
2022/11/02 08:28:18;;;;;;;14.23;3.88;;;;;;;11.85;100.00;97559.72;5045294;28;20144;-68
2022/11/02 08:30:44;;;;;;;7.45;2.90;;;;;;;11.94;100.00;97550.50;5049882;28;20472;-67
2022/11/02 08:33:14;;;;;;;7.78;3.13;;;;;;;11.90;100.00;97552.34;5037948;28;20087;-68
2022/11/02 08:35:41;;;;;;;13.15;2.88;;;;;;;11.94;100.00;97556.81;5040939;28;20051;-68
2022/11/02 08:38:07;;;;;;;10.80;2.95;;;;;;;11.98;100.00;97552.22;5052198;28;20057;-66
2022/11/02 08:40:33;;;;;;;13.98;3.60;;;;;;;12.14;100.00;97545.91;5047240;28;20572;-67
2022/11/02 08:43:01;;;;;;;11.93;6.32;;;;;;;12.18;100.00;97552.28;5047346;28;20080;-67
2022/11/02 08:45:28;;;;;;;7.97;2.60;;;;;;;12.31;100.00;97547.47;5041658;28;20099;-68
2022/11/02 08:47:54;;;;;;;12.73;2.78;;;;;;;12.41;100.00;97544.97;5046657;28;20133;-69
2022/11/02 08:50:20;;;;;;;10.35;3.35;;;;;;;12.50;100.00;97549.50;5042913;28;20521;-67
2022/11/02 08:52:46;;;;;;;13.25;2.63;;;;;;;12.39;100.00;97550.03;5045145;28;20056;-68
2022/11/02 08:55:11;;;;;;;11.55;4.70;;;;;;;12.34;100.00;97557.75;5042466;28;20120;-66
2022/11/02 08:57:47;;;;;;;10.50;3.10;;;;;;;12.50;100.00;97552.25;5045787;28;20048;-66
2022/11/02 09:00:13;;;;;;;15.18;3.30;;;;;;;12.56;100.00;97556.28;5042147;28;20044;-66
2022/11/02 09:02:39;;;;;;;13.82;3.28;;;;;;;12.83;100.00;97549.00;5044142;28;20041;-67
2022/11/02 09:05:05;;;;;;;12.23;3.42;;;;;;;12.89;100.00;97549.53;5041926;28;20037;-71
2022/11/02 09:07:30;;;;;;;10.85;3.00;;;;;;;13.03;100.00;97551.78;5044399;28;20040;-66
2022/11/02 09:09:55;;;;;;;20.88;3.35;;;;;;;13.06;100.00;97551.84;5046567;28;20037;-67
2022/11/02 09:12:21;;;;;;;10.13;2.55;;;;;;;13.01;100.00;97549.38;5043496;28;20454;-68
2022/11/02 09:14:49;;;;;;;11.82;3.65;;;;;;;12.86;100.00;97551.06;5046733;28;20079;-67
2022/11/02 09:17:14;;;;;;;7.97;2.17;;;;;;;12.85;100.00;97554.16;5037013;28;20047;-67
2022/11/02 09:19:40;;;;;;;16.90;2.53;;;;;;;12.88;100.00;97550.69;5047411;28;20040;-67
2022/11/02 09:22:05;;;;;;;10.93;2.10;;;;;;;12.77;100.00;97554.00;5048637;28;20059;-70
2022/11/02 09:24:30;;;;;;;8.48;2.63;;;;;;;12.73;100.00;97555.88;5052666;28;20371;-67
2022/11/02 09:26:56;;;;;;;8.40;2.08;;;;;;;12.79;100.00;97550.91;5046659;28;20140;-65
2022/11/02 09:29:21;;;;;;;15.13;2.17;;;;;;;12.75;100.00;97558.28;5041588;28;21219;-67
2022/11/02 09:31:47;;;;;;;12.23;2.20;;;;;;;12.87;100.00;97552.63;5043077;28;20045;-66
2022/11/02 09:34:14;;;;;;;7.80;2.40;;;;;;;12.98;100.00;97558.34;5043055;28;20078;-70
2022/11/02 09:36:39;;;;;;;16.38;2.33;;;;;;;13.31;100.00;97557.09;5047804;28;20591;-67
2022/11/02 09:39:05;;;;;;;13.48;2.38;;;;;;;13.38;100.00;97559.97;5042357;28;20037;-75
2022/11/02 09:41:46;;;;;;;9.48;2.88;;;;;;;13.14;100.00;97563.78;5045940;28;20040;-69
2022/11/02 09:44:27;;;;;;;5.90;2.08;;;;;;;13.10;100.00;97562.91;5039854;28;20051;-68
2022/11/02 09:46:53;;;;;;;11.70;2.17;;;;;;;13.04;100.00;97556.13;5045446;28;20481;-69
2022/11/02 09:49:23;;;;;;;12.82;3.63;;;;;;;12.95;100.00;97559.09;5043282;28;20079;-68
2022/11/02 09:51:54;;;;;;;13.45;3.60;;;;;;;12.95;100.00;97568.13;5046334;28;20445;-68
2022/11/02 09:54:44;;;;;;;13.93;3.33;;;;;;;13.20;100.00;97565.88;5040061;28;20053;-70
2022/11/02 09:57:15;;;;;;;8.98;2.50;;;;;;;13.14;100.00;97561.84;5041693;28;20053;-68
2022/11/02 09:59:41;;;;;;;8.15;2.40;;;;;;;13.05;100.00;97572.25;5043627;28;20044;-69
2022/11/02 10:02:34;;;;;;;8.43;2.20;;;;;;;12.87;100.00;97560.88;5043783;28;20463;-69
2022/11/02 10:05:24;;;;;;;10.85;2.28;;;;;;;12.92;100.00;97568.84;5046279;28;20076;-69
2022/11/02 10:08:08;;;;;;;;;;;;;;;13.00;100.00;97578.06;5028578;28;20055;-70
2022/11/02 10:10:42;;;;;;;16.45;2.67;;;;;;;12.91;100.00;97563.69;5044910;28;19912;-67
2022/11/02 10:13:45;;;;;;;7.10;2.08;;;;;;;13.10;100.00;97571.19;5041660;28;20040;-66
2022/11/02 10:16:37;;;;;;;8.70;2.47;;;;;;;12.84;100.00;97567.13;5038742;28;20102;-68
2022/11/02 10:19:10;;;;;;;8.73;2.13;;;;;;;12.99;100.00;97573.69;5043665;28;20041;-73
2022/11/02 10:21:38;;;;;;;10.98;2.40;;;;;;;13.13;100.00;97574.00;5046243;28;20044;-71
2022/11/02 10:24:30;;;;;;;8.52;2.30;;;;;;;13.08;100.00;97576.25;5042896;28;20508;-73
2022/11/02 10:27:00;;;;;;;7.82;2.10;;;;;;;13.17;100.00;97574.84;5043787;28;20056;-68
2022/11/02 10:29:34;;;;;;;8.00;3.05;;;;;;;13.08;100.00;97568.78;5041967;28;20044;-68
2022/11/02 10:32:01;;;;;;;17.10;2.30;;;;;;;13.16;100.00;97570.53;5045840;28;20076;-68
2022/11/02 10:34:28;;;;;;;12.60;3.03;;;;;;;13.17;100.00;97565.81;5042021;28;20045;-68
2022/11/02 10:37:25;;;;;;;16.63;2.80;;;;;;;13.17;100.00;97563.06;5036983;28;20051;-67
2022/11/02 10:40:30;;;;;;;18.48;5.40;;;;;;;13.38;100.00;97571.78;5045069;28;20037;-67
2022/11/02 10:43:26;;;;;;;11.73;2.10;;;;;;;13.43;100.00;97567.91;5028525;28;20136;-67
2022/11/02 10:46:17;;;;;;;10.00;1.67;;;;;;;13.49;100.00;97563.72;5045100;28;20417;-69
2022/11/02 10:48:55;;;;;;;9.65;2.45;;;;;;;13.37;100.00;97561.91;5026961;28;20051;-70
2022/11/02 10:51:22;;;;;;;8.65;1.50;;;;;;;13.38;100.00;97571.78;5032445;28;20090;-68
2022/11/02 10:53:50;;;;;;;11.85;1.90;;;;;;;13.39;100.00;97559.59;5046599;28;20037;-67
2022/11/02 10:56:20;;;;;;;14.10;1.85;;;;;;;13.32;100.00;97558.66;5042574;28;20391;-68
2022/11/02 10:58:58;;;;;;;9.98;2.80;;;;;;;13.31;100.00;97560.63;5045805;28;20448;-67
2022/11/02 11:01:25;;;;;;;13.20;2.00;;;;;;;13.54;100.00;97554.34;5041209;28;20041;-66
2022/11/02 11:04:01;;;;;;;15.88;2.28;;;;;;;13.60;100.00;97552.91;5046761;28;20048;-67
2022/11/02 11:06:40;;;;;;;6.65;1.30;;;;;;;13.68;100.00;97549.09;5036939;28;20049;-67
2022/11/02 11:09:15;;;;;;;11.32;1.73;;;;;;;14.01;97.86;97549.66;5044666;28;20390;-68
2022/11/02 11:11:41;;;;;;;6.35;1.42;;;;;;;14.05;97.29;97540.28;5053170;28;20045;-68
2022/11/02 11:14:14;;;;;;;10.30;1.83;;;;;;;14.12;95.06;97548.69;5045767;28;20123;-69
2022/11/02 11:16:43;;;;;;;7.63;1.80;;;;;;;14.43;93.62;97544.03;5047410;28;20041;-68
2022/11/02 11:19:21;;;;;;;7.95;1.90;;;;;;;14.57;92.93;97550.88;5043359;28;20049;-71
2022/11/02 11:21:50;;;;;;;11.15;2.00;;;;;;;14.87;90.76;97548.19;5058708;28;20653;-66
2022/11/02 11:24:18;;;;;;;8.68;2.67;;;;;;;14.69;89.41;97532.22;5045972;28;20045;-69
2022/11/02 11:26:44;;;;;;;10.88;2.25;;;;;;;14.33;91.13;97537.19;5049550;28;20393;-68
2022/11/02 11:29:22;;;;;;;6.50;1.65;;;;;;;14.11;92.20;97524.25;5045783;28;20045;-68
2022/11/02 11:31:48;;;;;;;10.02;1.50;;;;;;;14.02;93.82;97518.19;5053132;28;20056;-68
2022/11/02 11:34:52;;;;;;;9.80;1.80;;;;;;;14.11;94.72;97519.53;5047612;28;20044;-66
2022/11/02 11:37:18;;;;;;;8.82;1.30;;;;;;;13.96;95.28;97514.97;5035228;28;20073;-67
2022/11/02 11:39:49;;;;;;;13.70;2.15;;;;;;;13.87;95.51;97501.44;5051543;28;20091;-68
2022/11/02 11:42:18;;;;;;;6.45;1.60;;;;;;;13.95;95.19;97505.91;5056085;28;20021;-68
2022/11/02 11:44:51;;;;;;;10.20;2.28;;;;;;;14.00;93.87;97517.78;5055332;28;20045;-68
2022/11/02 11:47:24;;;;;;;17.15;2.72;;;;;;;14.03;94.94;97509.56;5059248;28;20045;-68
2022/11/02 11:49:49;;;;;;;8.68;2.33;;;;;;;14.03;95.51;97514.28;5053438;28;20048;-68